createdAt,value
2023-09-13T00:00:17.296Z,34.38
2023-09-13T00:02:46.474Z,35.80
2023-09-13T00:05:15.090Z,30.20
2023-09-13T00:07:43.721Z,31.98
2023-09-13T00:10:13.052Z,34.88
2023-09-13T00:12:41.694Z,35.75
2023-09-13T00:15:12.135Z,44.00
2023-09-13T00:17:42.292Z,34.28
2023-09-13T00:20:12.156Z,37.17
2023-09-13T00:22:40.620Z,36.92
2023-09-13T00:25:11.901Z,35.47
2023-09-13T00:27:42.490Z,36.47
2023-09-13T00:30:14.131Z,40.33
2023-09-13T00:32:55.802Z,44.25
2023-09-13T00:35:26.303Z,38.38
2023-09-13T00:37:55.135Z,44.75
2023-09-13T00:40:29.063Z,40.70
2023-09-13T00:42:57.608Z,38.80
2023-09-13T00:45:26.831Z,45.92
2023-09-13T00:47:58.560Z,41.45
2023-09-13T00:50:43.670Z,43.15
2023-09-13T00:53:25.328Z,38.33
2023-09-13T00:55:55.545Z,33.78
2023-09-13T00:58:38.778Z,43.17
2023-09-13T01:01:11.313Z,40.45
2023-09-13T01:03:45.368Z,33.42
2023-09-13T01:06:18.402Z,30.75
2023-09-13T01:08:49.304Z,33.67
2023-09-13T01:11:18.496Z,37.10
2023-09-13T01:13:47.053Z,34.80
2023-09-13T01:16:32.886Z,39.05
2023-09-13T01:19:24.061Z,33.00
2023-09-13T01:22:19.061Z,34.78
2023-09-13T01:25:12.677Z,33.03
2023-09-13T01:27:51.683Z,34.30
2023-09-13T01:30:26.289Z,39.67
2023-09-13T01:32:55.519Z,34.20
2023-09-13T01:35:24.030Z,32.92
2023-09-13T01:37:54.480Z,36.22
2023-09-13T01:40:31.852Z,33.90
2023-09-13T01:43:05.301Z,37.15
2023-09-13T01:45:36.584Z,40.08
2023-09-13T01:48:07.240Z,39.85
2023-09-13T01:50:37.444Z,35.42
2023-09-13T01:53:06.147Z,31.90
2023-09-13T01:55:36.294Z,37.90
2023-09-13T01:58:06.717Z,37.47
2023-09-13T02:00:38.126Z,41.67
2023-09-13T02:03:11.103Z,39.92
2023-09-13T02:05:39.979Z,49.78
2023-09-13T02:08:09.546Z,42.35
2023-09-13T02:10:38.901Z,49.60
2023-09-13T02:13:09.662Z,47.30
2023-09-13T02:15:44.333Z,46.60
2023-09-13T02:18:15.255Z,49.20
2023-09-13T02:20:44.438Z,49.65
2023-09-13T02:23:12.981Z,49.83
2023-09-13T02:25:45.953Z,49.05
2023-09-13T02:28:16.464Z,41.90
2023-09-13T02:30:48.932Z,46.83
2023-09-13T02:33:20.095Z,47.38
2023-09-13T02:35:51.343Z,46.05
2023-09-13T02:38:20.451Z,46.63
2023-09-13T02:40:48.959Z,51.60
2023-09-13T02:43:20.835Z,48.97
2023-09-13T02:45:53.942Z,49.13
2023-09-13T02:48:24.948Z,55.67
2023-09-13T02:50:57.060Z,47.35
2023-09-13T02:53:28.318Z,54.72
2023-09-13T02:56:06.173Z,50.80
2023-09-13T02:58:35.162Z,54.03
2023-09-13T03:01:11.801Z,51.90
2023-09-13T03:03:43.214Z,53.42
2023-09-13T03:06:14.174Z,51.70
2023-09-13T03:08:43.025Z,50.90
2023-09-13T03:11:18.135Z,56.05
2023-09-13T03:13:48.070Z,58.05
2023-09-13T03:16:23.105Z,46.05
2023-09-13T03:18:56.208Z,54.53
2023-09-13T03:21:28.537Z,60.28
2023-09-13T03:23:57.138Z,54.80
2023-09-13T03:26:29.296Z,54.97
2023-09-13T03:28:58.725Z,51.65
2023-09-13T03:31:29.574Z,45.25
2023-09-13T03:34:00.501Z,52.80
2023-09-13T03:36:32.180Z,44.47
2023-09-13T03:39:03.425Z,44.38
2023-09-13T03:41:35.213Z,43.10
2023-09-13T03:44:04.841Z,40.10
2023-09-13T03:46:35.850Z,44.28
2023-09-13T03:49:05.000Z,45.05
2023-09-13T03:51:35.282Z,42.40
2023-09-13T03:54:06.939Z,39.80
2023-09-13T03:56:38.576Z,43.25
2023-09-13T03:59:08.752Z,39.95
2023-09-13T04:01:41.709Z,37.35
2023-09-13T04:04:11.059Z,40.03
2023-09-13T04:06:40.525Z,35.05
2023-09-13T04:09:12.758Z,35.40
2023-09-13T04:11:42.972Z,40.03
2023-09-13T04:14:13.944Z,43.28
2023-09-13T04:16:45.739Z,43.17
2023-09-13T04:19:20.802Z,39.70
2023-09-13T04:21:57.088Z,37.00
2023-09-13T04:24:25.879Z,36.53
2023-09-13T04:26:55.046Z,33.85
2023-09-13T04:29:23.785Z,39.08
2023-09-13T04:31:53.671Z,40.05
2023-09-13T04:34:22.293Z,43.80
2023-09-13T04:36:51.346Z,42.47
2023-09-13T04:39:20.717Z,46.10
2023-09-13T04:41:51.368Z,40.92
2023-09-13T04:44:20.429Z,41.47
2023-09-13T04:46:48.991Z,36.88
2023-09-13T04:49:19.401Z,36.17
2023-09-13T04:51:47.939Z,35.88
2023-09-13T04:54:25.594Z,35.58
2023-09-13T04:56:54.573Z,34.85
2023-09-13T04:59:26.362Z,36.65
2023-09-13T05:01:55.105Z,34.83
2023-09-13T05:04:25.200Z,37.67
2023-09-13T05:06:55.352Z,43.25
2023-09-13T05:09:24.102Z,39.85
2023-09-13T05:11:55.515Z,43.78
2023-09-13T05:14:26.143Z,38.40
2023-09-13T05:16:54.882Z,46.08
2023-09-13T05:19:27.958Z,42.13
2023-09-13T05:21:56.576Z,44.83
2023-09-13T05:24:25.231Z,39.95
2023-09-13T05:26:54.962Z,41.15
2023-09-13T05:29:24.309Z,44.83
2023-09-13T05:31:53.937Z,40.00
2023-09-13T05:34:27.733Z,43.22
2023-09-13T05:36:56.625Z,42.20
2023-09-13T05:39:25.818Z,43.33
2023-09-13T05:41:57.198Z,44.08
2023-09-13T05:44:26.688Z,40.42
2023-09-13T05:46:55.277Z,39.95
2023-09-13T05:49:24.105Z,35.70
2023-09-13T05:51:54.351Z,36.30
2023-09-13T05:54:22.888Z,37.22
2023-09-13T05:56:55.264Z,36.58
2023-09-13T05:59:23.812Z,38.80
2023-09-13T06:01:53.149Z,40.78
2023-09-13T06:04:21.772Z,38.10
2023-09-13T06:06:50.404Z,44.15
2023-09-13T06:09:23.198Z,37.35
2023-09-13T06:11:52.188Z,47.25
2023-09-13T06:14:20.736Z,47.10
2023-09-13T06:16:49.455Z,52.35
2023-09-13T06:19:18.209Z,57.80
2023-09-13T06:21:47.661Z,57.65
2023-09-13T06:24:16.338Z,66.00
2023-09-13T06:26:46.216Z,78.30
2023-09-13T06:29:14.835Z,74.35
2023-09-13T06:32:00.498Z,78.88
2023-09-13T06:34:32.907Z,76.45
2023-09-13T06:37:02.152Z,67.05
2023-09-13T06:39:31.384Z,78.80
2023-09-13T06:42:02.472Z,73.95
2023-09-13T06:44:45.333Z,75.70
2023-09-13T06:47:15.698Z,83.00
2023-09-13T06:49:44.466Z,80.40
2023-09-13T06:52:14.382Z,82.63
2023-09-13T06:54:46.325Z,80.05
2023-09-13T06:57:19.861Z,85.32
2023-09-13T06:59:56.560Z,72.38
2023-09-13T07:02:32.897Z,76.05
2023-09-13T07:07:38.248Z,75.38
2023-09-13T07:10:08.979Z,64.82
2023-09-13T07:12:39.054Z,65.25
2023-09-13T07:15:09.337Z,60.83
2023-09-13T07:17:38.490Z,61.20
2023-09-13T07:20:08.555Z,66.32
2023-09-13T07:22:37.438Z,65.65
2023-09-13T07:25:20.332Z,62.35
2023-09-13T07:27:50.181Z,60.25
2023-09-13T07:30:20.078Z,63.42
2023-09-13T07:32:50.233Z,64.28
2023-09-13T07:35:18.968Z,65.53
2023-09-13T07:37:47.585Z,63.63
2023-09-13T07:40:16.531Z,62.50
2023-09-13T07:42:45.137Z,60.45
2023-09-13T07:45:15.184Z,67.60
2023-09-13T07:47:43.795Z,62.50
2023-09-13T07:50:31.011Z,60.90
2023-09-13T07:53:14.860Z,59.85
2023-09-13T07:55:43.526Z,64.28
2023-09-13T07:58:12.435Z,60.95
2023-09-13T08:00:42.602Z,65.32
2023-09-13T08:03:11.457Z,61.35
2023-09-13T08:05:40.199Z,56.85
2023-09-13T08:08:10.321Z,57.03
2023-09-13T08:10:42.105Z,57.45
2023-09-13T08:13:13.059Z,63.65
2023-09-13T08:15:49.131Z,62.00
2023-09-13T08:18:19.418Z,59.92
2023-09-13T08:20:48.420Z,63.05
2023-09-13T08:23:17.452Z,52.60
2023-09-13T08:25:46.840Z,54.60
2023-09-13T08:28:15.436Z,54.58
2023-09-13T08:30:45.759Z,49.22
2023-09-13T08:33:14.295Z,48.95
2023-09-13T08:35:42.814Z,45.15
2023-09-13T08:38:11.405Z,41.47
2023-09-13T08:40:44.169Z,36.67
2023-09-13T08:43:14.268Z,36.72
2023-09-13T08:45:43.762Z,35.88
2023-09-13T08:48:13.787Z,34.88
2023-09-13T08:50:43.154Z,34.55
2023-09-13T08:53:13.647Z,41.20
2023-09-13T08:55:43.297Z,33.25
2023-09-13T08:58:12.527Z,38.22
2023-09-13T09:00:43.502Z,39.67
2023-09-13T09:03:15.184Z,38.63
2023-09-13T09:05:44.392Z,42.65
2023-09-13T09:08:12.990Z,42.13
2023-09-13T09:10:44.819Z,46.92
2023-09-13T09:13:14.240Z,41.08
2023-09-13T09:15:43.942Z,42.17
2023-09-13T09:18:14.812Z,46.17
2023-09-13T09:20:45.396Z,38.88
2023-09-13T09:23:15.666Z,44.28
2023-09-13T09:25:46.335Z,38.03
2023-09-13T09:28:14.948Z,34.63
2023-09-13T09:30:45.701Z,38.17
2023-09-13T09:33:15.913Z,37.53
2023-09-13T09:35:55.152Z,35.70
2023-09-13T09:38:24.750Z,35.55
2023-09-13T09:40:57.067Z,29.85
2023-09-13T09:43:25.672Z,32.95
2023-09-13T09:45:54.983Z,33.53
2023-09-13T09:48:25.313Z,33.58
2023-09-13T09:50:55.028Z,24.42
2023-09-13T09:53:24.420Z,17.08
2023-09-13T09:55:54.438Z,13.00
2023-09-13T09:58:23.801Z,8.40
2023-09-13T10:00:53.941Z,5.28
2023-09-13T10:03:43.858Z,7.20
2023-09-13T10:06:14.825Z,4.75
2023-09-13T10:08:48.633Z,4.78
2023-09-13T10:11:19.678Z,4.63
2023-09-13T10:13:48.702Z,4.13
2023-09-13T10:16:19.034Z,5.05
2023-09-13T10:18:50.476Z,6.18
2023-09-13T10:21:22.335Z,5.30
2023-09-13T10:23:54.788Z,4.70
2023-09-13T10:26:25.071Z,4.50
2023-09-13T10:28:58.355Z,4.10
2023-09-13T10:31:29.830Z,9.05
2023-09-13T10:34:06.251Z,5.47
2023-09-13T10:36:39.597Z,7.30
2023-09-13T10:39:17.857Z,4.78
2023-09-13T10:41:56.452Z,6.10
2023-09-13T10:44:25.957Z,4.18
2023-09-13T10:46:55.065Z,7.40
2023-09-13T10:49:26.316Z,3.92
2023-09-13T10:51:57.283Z,4.78
2023-09-13T10:54:26.969Z,4.82
2023-09-13T10:56:55.856Z,7.88
2023-09-13T10:59:26.723Z,5.35
2023-09-13T11:01:55.335Z,4.28
2023-09-13T11:04:26.843Z,3.95
2023-09-13T11:06:59.086Z,5.28
2023-09-13T11:09:31.218Z,3.67
2023-09-13T11:12:01.013Z,6.03
2023-09-13T11:14:30.839Z,3.25
2023-09-13T11:17:11.870Z,3.88
2023-09-13T11:19:42.007Z,5.32
2023-09-13T11:22:10.610Z,3.97
2023-09-13T11:24:58.732Z,4.18
2023-09-13T11:27:29.831Z,4.03
2023-09-13T11:30:00.934Z,6.47
2023-09-13T11:32:32.774Z,3.33
2023-09-13T11:35:05.223Z,5.15
2023-09-13T11:37:34.615Z,4.30
2023-09-13T11:40:12.716Z,7.43
2023-09-13T11:42:57.121Z,4.18
2023-09-13T11:45:34.769Z,4.20
2023-09-13T11:48:05.982Z,3.20
2023-09-13T11:50:48.474Z,4.82
2023-09-13T11:53:21.835Z,4.75
2023-09-13T11:56:09.821Z,4.53
2023-09-13T11:58:51.787Z,6.43
2023-09-13T12:01:28.182Z,6.80
2023-09-13T12:06:44.260Z,5.80
2023-09-13T12:09:18.858Z,4.45
2023-09-13T12:11:52.378Z,5.05
2023-09-13T12:14:35.249Z,5.55
2023-09-13T12:17:12.820Z,5.57
2023-09-13T12:19:41.431Z,3.72
2023-09-13T12:22:15.938Z,4.40
2023-09-13T12:24:53.677Z,5.07
2023-09-13T12:27:24.847Z,5.57
2023-09-13T12:29:53.514Z,7.22
2023-09-13T12:32:22.405Z,6.57
2023-09-13T12:34:51.054Z,2.88
2023-09-13T12:37:21.268Z,4.20
2023-09-13T12:39:49.875Z,6.70
2023-09-13T12:42:19.390Z,5.40
2023-09-13T12:44:48.408Z,5.63
2023-09-13T12:47:18.931Z,7.60
2023-09-13T12:49:47.768Z,3.03
2023-09-13T12:52:17.278Z,5.97
2023-09-13T12:54:47.425Z,4.80
2023-09-13T12:57:16.311Z,3.05
2023-09-13T12:59:46.010Z,5.97
2023-09-13T13:02:16.045Z,2.95
2023-09-13T13:04:44.938Z,5.05
2023-09-13T13:07:22.840Z,3.03
2023-09-13T13:09:53.936Z,3.33
2023-09-13T13:12:22.866Z,4.95
2023-09-13T13:14:52.313Z,4.95
2023-09-13T13:17:22.383Z,5.07
2023-09-13T13:19:57.019Z,3.17
2023-09-13T13:22:27.395Z,4.50
2023-09-13T13:24:57.356Z,4.65
2023-09-13T13:27:29.501Z,4.00
2023-09-13T13:29:58.225Z,4.05
2023-09-13T13:32:26.784Z,2.42
2023-09-13T13:34:55.352Z,3.83
2023-09-13T13:37:25.126Z,3.47
2023-09-13T13:39:53.682Z,4.20
2023-09-13T13:42:23.656Z,5.70
2023-09-13T13:44:54.949Z,9.32
2023-09-13T13:47:23.378Z,2.45
2023-09-13T13:49:52.343Z,2.15
2023-09-13T13:52:20.800Z,4.30
2023-09-13T13:54:49.530Z,3.65
2023-09-13T13:57:18.178Z,3.58
2023-09-13T13:59:48.023Z,3.72
2023-09-13T14:02:16.711Z,4.18
2023-09-13T14:04:45.240Z,3.70
2023-09-13T14:07:13.714Z,8.73
2023-09-13T14:09:42.512Z,9.23
2023-09-13T14:12:11.141Z,5.47
2023-09-13T14:14:40.695Z,6.40
2023-09-13T14:17:10.532Z,4.78
2023-09-13T14:19:39.100Z,6.82
2023-09-13T14:22:07.857Z,5.25
2023-09-13T14:24:36.367Z,8.18
2023-09-13T14:27:06.628Z,4.13
2023-09-13T14:29:35.097Z,4.93
2023-09-13T14:32:05.092Z,3.92
2023-09-13T14:34:40.307Z,4.68
2023-09-13T14:37:10.474Z,3.50
2023-09-13T14:39:39.287Z,4.15
2023-09-13T14:42:07.993Z,5.75
2023-09-13T14:44:37.630Z,8.98
2023-09-13T14:47:06.371Z,4.15
2023-09-13T14:49:36.484Z,6.97
2023-09-13T14:52:05.669Z,5.63
2023-09-13T14:54:34.082Z,4.30
2023-09-13T14:57:03.417Z,5.25
2023-09-13T14:59:31.879Z,6.50
2023-09-13T15:02:02.528Z,3.40
2023-09-13T15:04:31.052Z,4.53
2023-09-13T15:07:01.070Z,4.35
2023-09-13T15:09:29.558Z,5.95
2023-09-13T15:11:58.166Z,6.28
2023-09-13T15:14:26.710Z,4.03
2023-09-13T15:16:55.103Z,4.03
2023-09-13T15:19:23.592Z,5.50
2023-09-13T15:21:52.199Z,5.13
2023-09-13T15:24:22.028Z,6.53
2023-09-13T15:26:50.722Z,5.05
2023-09-13T15:29:19.148Z,5.93
2023-09-13T15:34:19.281Z,5.32
2023-09-13T15:36:47.907Z,6.10
2023-09-13T15:39:17.649Z,6.45
2023-09-13T15:41:47.866Z,9.55
2023-09-13T15:44:16.595Z,11.45
2023-09-13T15:46:49.458Z,6.82
2023-09-13T15:49:22.867Z,11.05
2023-09-13T15:51:51.695Z,8.82
2023-09-13T15:54:20.718Z,6.60
2023-09-13T15:56:51.910Z,7.25
2023-09-13T15:59:20.465Z,5.20
2023-09-13T16:01:48.991Z,7.78
2023-09-13T16:04:17.504Z,6.22
2023-09-13T16:06:46.057Z,5.05
2023-09-13T16:09:14.526Z,2.83
2023-09-13T16:11:43.190Z,7.28
2023-09-13T16:14:31.563Z,12.63
2023-09-13T16:17:01.573Z,8.52
2023-09-13T16:19:30.627Z,6.50
2023-09-13T16:21:59.381Z,6.78
2023-09-13T16:24:27.977Z,7.97
2023-09-13T16:26:58.657Z,8.63
2023-09-13T16:29:29.016Z,4.07
2023-09-13T16:31:57.813Z,4.15
2023-09-13T16:34:27.077Z,6.70
2023-09-13T16:36:55.656Z,4.82
2023-09-13T16:39:25.182Z,6.47
2023-09-13T16:41:56.256Z,7.18
2023-09-13T16:44:24.844Z,6.70
2023-09-13T16:46:55.003Z,4.63
2023-09-13T16:49:26.246Z,5.15
2023-09-13T16:51:54.757Z,5.40
2023-09-13T16:54:23.373Z,2.47
2023-09-13T16:56:52.780Z,6.35
2023-09-13T16:59:21.486Z,5.30
2023-09-13T17:01:50.451Z,4.57
2023-09-13T17:04:20.464Z,4.63
2023-09-13T17:06:49.315Z,4.43
2023-09-13T17:09:17.806Z,4.25
2023-09-13T17:11:46.322Z,6.22
2023-09-13T17:14:15.080Z,4.57
2023-09-13T17:16:43.573Z,6.32
2023-09-13T17:19:12.091Z,5.28
2023-09-13T17:21:42.607Z,6.20
2023-09-13T17:24:11.177Z,5.30
2023-09-13T17:26:39.825Z,3.90
2023-09-13T17:29:08.260Z,5.18
2023-09-13T17:31:36.798Z,5.32
2023-09-13T17:34:30.529Z,4.47
2023-09-13T17:37:00.670Z,5.63
2023-09-13T17:39:29.145Z,5.50
2023-09-13T17:41:57.643Z,5.60
2023-09-13T17:44:26.189Z,5.28
2023-09-13T17:46:55.072Z,9.90
2023-09-13T17:49:23.667Z,6.45
2023-09-13T17:51:52.183Z,6.75
2023-09-13T17:54:22.015Z,3.70
2023-09-13T17:56:50.976Z,5.55
2023-09-13T17:59:19.428Z,5.05
2023-09-13T18:01:47.953Z,8.93
2023-09-13T18:04:16.625Z,3.67
2023-09-13T18:06:47.081Z,5.38
2023-09-13T18:09:15.602Z,3.53
2023-09-13T18:11:47.638Z,4.80
2023-09-13T18:14:16.182Z,3.08
2023-09-13T18:16:44.662Z,4.78
2023-09-13T18:19:13.278Z,3.05
2023-09-13T18:21:42.936Z,5.57
2023-09-13T18:24:12.806Z,6.95
2023-09-13T18:26:43.741Z,2.83
2023-09-13T18:29:15.627Z,3.72
2023-09-13T18:31:44.097Z,4.82
2023-09-13T18:34:12.829Z,4.13
2023-09-13T18:36:41.338Z,4.10
2023-09-13T18:39:12.623Z,4.10
2023-09-13T18:41:41.121Z,3.38
2023-09-13T18:44:11.973Z,9.15
2023-09-13T18:46:42.288Z,5.63
2023-09-13T18:49:10.735Z,5.50
2023-09-13T18:51:39.277Z,5.85
2023-09-13T18:54:08.281Z,7.07
2023-09-13T18:56:36.808Z,5.15
2023-09-13T18:59:05.575Z,6.63
2023-09-13T19:01:34.372Z,4.90
2023-09-13T19:04:04.547Z,6.80
2023-09-13T19:06:33.251Z,7.18
2023-09-13T19:09:01.723Z,4.90
2023-09-13T19:11:30.991Z,6.78
2023-09-13T19:13:59.620Z,8.70
2023-09-13T19:16:28.197Z,4.78
2023-09-13T19:18:58.739Z,7.70
2023-09-13T19:21:29.169Z,4.00
2023-09-13T19:24:00.645Z,4.82
2023-09-13T19:26:29.444Z,3.58
2023-09-13T19:28:57.909Z,11.00
2023-09-13T19:31:26.549Z,3.78
2023-09-13T19:33:56.453Z,3.95
2023-09-13T19:36:25.086Z,3.47
2023-09-13T19:38:54.972Z,4.35
2023-09-13T19:41:23.399Z,6.80
2023-09-13T19:43:51.973Z,4.35
2023-09-13T19:46:20.467Z,3.80
2023-09-13T19:48:49.171Z,5.28
2023-09-13T19:51:18.069Z,5.97
2023-09-13T19:53:47.192Z,5.30
2023-09-13T19:56:17.374Z,6.57
2023-09-13T19:58:48.937Z,5.47
2023-09-13T20:01:18.530Z,8.13
2023-09-13T20:03:47.512Z,7.95
2023-09-13T20:06:19.040Z,5.18
2023-09-13T20:08:48.031Z,7.28
2023-09-13T20:11:21.134Z,5.28
2023-09-13T20:13:49.724Z,6.55
2023-09-13T20:16:18.167Z,10.38
2023-09-13T20:18:47.889Z,6.05
2023-09-13T20:21:16.989Z,12.55
2023-09-13T20:23:45.966Z,7.55
2023-09-13T20:26:15.190Z,8.38
2023-09-13T20:28:45.413Z,4.97
2023-09-13T20:31:22.704Z,5.70
2023-09-13T20:33:51.735Z,5.43
2023-09-13T20:36:20.803Z,4.53
2023-09-13T20:38:52.174Z,10.48
2023-09-13T20:41:23.736Z,10.73
2023-09-13T20:43:54.547Z,5.38
2023-09-13T20:46:23.987Z,5.60
2023-09-13T20:48:52.758Z,4.43
2023-09-13T20:51:21.329Z,6.18
2023-09-13T20:53:53.476Z,6.78
2023-09-13T20:56:22.281Z,3.30
2023-09-13T20:58:50.850Z,5.68
2023-09-13T21:01:23.704Z,3.97
2023-09-13T21:03:52.924Z,4.75
2023-09-13T21:06:25.591Z,4.97
2023-09-13T21:08:54.633Z,3.65
2023-09-13T21:11:23.318Z,6.53
2023-09-13T21:13:51.968Z,7.22
2023-09-13T21:16:22.492Z,6.68
2023-09-13T21:18:51.535Z,13.15
2023-09-13T21:21:20.258Z,6.53
2023-09-13T21:23:49.088Z,6.15
2023-09-13T21:26:17.840Z,6.75
2023-09-13T21:28:47.661Z,7.90
2023-09-13T21:31:19.747Z,5.53
2023-09-13T21:33:49.922Z,12.20
2023-09-13T21:36:18.973Z,5.47
2023-09-13T21:38:47.930Z,9.35
2023-09-13T21:41:16.581Z,5.50
2023-09-13T21:43:45.193Z,13.38
2023-09-13T21:46:13.992Z,4.85
2023-09-13T21:48:43.758Z,5.53
2023-09-13T21:51:14.960Z,5.07
2023-09-13T21:53:43.547Z,9.13
2023-09-13T21:56:12.279Z,5.57
2023-09-13T21:58:41.031Z,7.30
2023-09-13T22:01:10.797Z,8.85
2023-09-13T22:03:40.050Z,14.10
2023-09-13T22:06:08.774Z,12.88
2023-09-13T22:08:39.107Z,8.60
2023-09-13T22:11:09.093Z,5.53
2023-09-13T22:13:38.682Z,17.38
2023-09-13T22:16:11.353Z,11.70
2023-09-13T22:18:40.588Z,9.75
2023-09-13T22:21:09.234Z,6.60
2023-09-13T22:23:39.354Z,13.38
2023-09-13T22:26:08.003Z,8.18
2023-09-13T22:28:36.540Z,8.15
2023-09-13T22:31:05.415Z,7.30
2023-09-13T22:33:34.050Z,5.68
2023-09-13T22:36:11.415Z,8.93
2023-09-13T22:38:48.460Z,10.10
2023-09-13T22:41:23.387Z,10.35
2023-09-13T22:43:52.393Z,8.77
2023-09-13T22:46:21.184Z,14.80
2023-09-13T22:48:49.879Z,11.50
2023-09-13T22:51:18.583Z,16.27
2023-09-13T22:53:48.660Z,9.65
2023-09-13T22:56:17.292Z,7.97
2023-09-13T22:58:46.182Z,6.85
2023-09-13T23:01:15.025Z,9.82
2023-09-13T23:03:46.214Z,7.72
2023-09-13T23:06:15.577Z,14.02
2023-09-13T23:08:44.501Z,13.98
2023-09-13T23:11:15.577Z,9.18
2023-09-13T23:13:44.594Z,8.10
2023-09-13T23:16:15.868Z,10.38
2023-09-13T23:18:45.179Z,9.63
2023-09-13T23:21:14.238Z,17.20
2023-09-13T23:23:45.188Z,9.25
2023-09-13T23:26:15.136Z,12.20
2023-09-13T23:28:43.788Z,15.70
2023-09-13T23:31:15.288Z,7.57
2023-09-13T23:33:45.884Z,13.88
2023-09-13T23:36:15.963Z,8.82
2023-09-13T23:38:46.361Z,15.88
2023-09-13T23:41:17.752Z,13.55
2023-09-13T23:43:47.941Z,8.80
2023-09-13T23:46:17.204Z,13.73
2023-09-13T23:48:46.433Z,7.18
2023-09-13T23:51:17.332Z,19.73
2023-09-13T23:53:50.225Z,10.45
2023-09-13T23:56:21.906Z,9.50
2023-09-13T23:58:51.456Z,13.30
